Latest Coastal Weather Observations for Esperance

IDW60701

Issued at 8:15 pm WST Wednesday 23 April 2014 (issued every 10 minutes, with the page automatically refreshed every 10 minutes)

About coastal observations | Map of coastal stations | Coastal observations for WA | Marine services | Other Formats
Station Details ID: 009789 Name: ESPERANCE Lat: -33.83 Lon: 121.89 Height: 25.0 m
Data from the previous 72 hours. | See also: Recent months at Esperance
Date/Time
WST
Temp

°C
Wind Pressure Rain
since 9am
mm
Weather Cloud Vis
km
Sea
Height
m
Swell
Dir
 
Speed
knots
Gust
knots
hPa Trend Height
m
Period
s
Dir
23/08:00pm 17.1 SSE 7 11 1018.4 - 0.0 - - 10 - - - -
23/07:30pm 16.9 SSE 6 9 1018.5 - 0.0 - - 10 - - - -
23/07:06pm 16.6 SSE 6 8 1018.4 - 0.0 - - 10 - - - -
23/07:00pm 16.5 SSE 6 8 1018.3 - 0.0 - - 10 - - - -
23/06:30pm 16.8 S 6 8 1018.3 - 0.0 - - 10 - - - -
23/06:00pm 17.2 SSE 6 8 1018.0 R 0.0 Fine Mostly clear 30 - - - -
23/05:30pm 17.5 S 6 8 1017.7 - 0.0 - Mostly clear 10 - - - -
23/05:00pm 18.1 S 7 10 1017.4 - 0.0 - Mostly clear 10 - - - -
23/04:30pm 18.7 S 8 11 1017.4 - 0.0 - Mostly clear 10 - - - -
23/04:00pm 19.1 SSW 9 12 1017.1 - 0.0 - Mostly clear 10 - - - -
23/03:30pm 19.2 S 10 14 1017.1 - 0.0 - Mostly clear 10 - - - -
23/03:00pm 19.5 S 11 17 1016.9 R 0.0 Fine Mostly clear 30 - - - -
23/02:30pm 19.0 S 12 16 1016.8 - 0.0 - Mostly clear 10 - - - -
23/02:00pm 21.0 S 10 14 1016.5 - 0.0 - Mostly clear 10 - - - -
23/01:30pm 20.8 S 7 10 1016.6 - 0.0 - Mostly clear 10 - - - -
23/01:00pm 19.9 SSW 9 13 1016.8 - 0.0 - Mostly clear 10 - - - -
23/12:30pm 20.4 S 10 14 1017.1 - 0.0 - Mostly clear 10 - - - -
23/12:00pm 20.6 SSW 8 12 1017.5 R 0.0 Fine Mostly clear 30 - - - -
23/11:30am 20.1 SE 11 13 1017.7 - 0.0 - Mostly clear 10 - - - -
23/11:00am 20.2 S 9 14 1017.7 - 0.0 - Mostly clear 10 - - - -
23/10:30am 19.8 SE 7 9 1017.9 - 0.0 - - 10 - - - -
23/10:00am 18.8 SSE 5 6 1017.9 - 0.0 - - 10 - - - -
23/09:30am 18.2 WNW 2 5 1018.2 - 0.0 - - 10 - - - -
23/09:00am 16.4 NW 4 5 1018.1 R 0.0 Haze Mostly clear 20 - - - -
23/08:30am 13.9 NNW 4 5 1018.1 - 0.0 - - 10 - - - -
23/08:00am 11.5 NNW 4 5 1017.8 - 0.0 - - 10 - - - -
23/07:30am 9.6 WNW 2 4 1017.8 - 0.0 - - 10 - - - -
23/07:00am 7.4 NW 4 4 1017.7 - 0.0 - - 10 - - - -
23/06:30am 6.7 N 4 5 1017.7 - 0.0 - - 10 - - - -
23/06:00am 7.1 NNW 4 5 1017.2 F 0.0 Fine Mostly clear 25 - - - -
23/05:30am 7.5 NNW 4 5 1017.3 - 0.0 - - 10 - - - -
23/05:00am 8.2 NW 3 3 1017.3 - 0.0 - - 10 - - - -
23/04:30am 8.3 NW 4 5 1017.1 - 0.0 - - 10 - - - -
23/04:00am 8.6 WNW 4 5 1016.7 - 0.0 - - 10 - - - -
23/03:30am 9.0 W 1 3 1016.8 - 0.0 - - 10 - - - -
23/03:00am 8.9 ESE 1 4 1016.6 F 0.0 - - 10 - - - -
23/02:30am 9.7 NW 1 3 1016.8 - 0.0 - - 10 - - - -
23/02:00am 10.3 SSW 3 4 1017.2 - 0.0 - - 10 - - - -
23/01:30am 10.8 N 3 4 1017.5 - 0.0 - - 10 - - - -
23/01:00am 12.5 CALM 0 0 1017.8 - 0.0 - - 10 - - - -
23/12:30am 11.4 CALM 0 0 1018.1 - 0.0 - - 10 - - - -
23/12:00am 11.8 N 2 3 1018.3 F 0.0 - - 10 - - - -
 
Date/Time
WST
Temp

°C
Wind Pressure Rain
since 9am
mm
Weather Cloud Vis
km
Sea
Height
m
Swell
Dir
 
Speed
knots
Gust
knots
hPa Trend Height
m
Period
s
Dir
22/11:30pm 12.0 N 5 7 1018.6 - 0.0 - - 10 - - - -
22/11:00pm 11.8 N 5 7 1018.3 - 0.0 - - 10 - - - -
22/10:30pm 12.2 N 6 8 1018.5 - 0.0 - - 10 - - - -
22/10:00pm 12.7 NNE 6 8 1018.4 - 0.0 - - 10 - - - -
22/09:30pm 12.8 NNE 6 8 1018.6 - 0.0 - - 10 - - - -
22/09:00pm 13.2 NNE 6 7 1018.7 F 0.0 - - 10 - - - -
22/08:30pm 13.5 NNE 5 7 1019.0 - 0.0 - - 10 - - - -
22/08:00pm 13.7 NE 5 6 1018.9 - 0.0 - - 10 - - - -
22/07:30pm 14.7 NE 5 6 1019.1 - 0.0 - - 10 - - - -
22/07:00pm 15.6 E 4 6 1019.0 - 0.0 - - 10 - - - -
22/06:30pm 17.1 ESE 5 7 1018.9 - 0.0 - - 10 - - - -
22/06:00pm 17.1 SE 5 6 1018.7 F 0.0 Fine Clear 30 - - - -
22/05:30pm 17.5 SSE 5 6 1018.6 - 0.0 - - 10 - - - -
22/05:00pm 18.3 S 8 10 1018.4 - 0.0 - - 10 - - - -
22/04:30pm 18.8 S 9 13 1018.5 - 0.0 - - 10 - - - -
22/04:00pm 19.3 SSE 10 12 1018.3 - 0.0 - - 10 - - - -
22/03:30pm 19.7 SSE 10 13 1018.6 - 0.0 - - 10 - - - -
22/03:00pm 19.9 SSE 9 12 1018.5 F 0.0 Fine Mostly clear 40 - - - -
22/02:30pm 19.9 SE 11 14 1018.8 - 0.0 - - 10 - - - -
22/02:00pm 20.1 SSE 10 12 1018.8 - 0.0 - - 10 - - - -
22/01:30pm 20.3 ESE 10 12 1019.1 - 0.0 - - 10 - - - -
22/01:00pm 20.1 SSE 8 10 1019.4 - 0.0 - Partly cloudy 10 - - - -
22/12:30pm 20.9 W 4 7 1019.9 - 0.0 - Partly cloudy 10 - - - -
22/12:00pm 21.2 NNE 6 9 1020.3 F 0.0 Fine Mostly clear 30 - - - -
22/11:30am 20.9 NNE 3 7 1021.0 - 0.0 - Partly cloudy 10 - - - -
22/11:00am 20.0 N 5 7 1021.4 - 0.0 - Mostly clear 10 - - - -
22/10:30am 20.2 NW 5 7 1021.7 - 0.0 - Mostly clear 10 - - - -
22/10:00am 19.1 N 6 9 1021.9 - 0.0 - Mostly clear 10 - - - -
22/09:30am 18.3 NNW 8 11 1022.2 - 0.0 - Mostly clear 10 - - - -
22/09:00am 17.3 NNW 7 9 1022.3 F 0.0 Haze Mostly clear 20 - - - -
22/08:30am 14.8 NNW 6 7 1022.6 - 0.0 - Mostly clear 10 - - - -
22/08:00am 11.9 NW 6 8 1022.5 - 0.0 - Partly cloudy 10 - - - -
22/07:30am 10.8 WNW 6 8 1022.6 - 0.0 - Partly cloudy 10 - - - -
22/07:00am 10.2 NW 4 5 1022.1 - 0.0 - Partly cloudy 10 - - - -
22/06:30am 9.4 W 3 5 1022.0 - 0.0 - Partly cloudy 10 - - - -
22/06:00am 9.1 NW 4 5 1021.7 R 0.0 Distant fog Mostly clear 20 - - - -
22/05:48am 9.2 WNW 4 5 1021.7 - 0.0 - Mostly clear 10 - - - -
22/05:30am 9.5 WNW 4 5 1021.6 - 0.0 - Partly cloudy 10 - - - -
22/05:00am 10.2 NW 5 6 1021.2 - 0.0 - Partly cloudy 10 - - - -
22/04:30am 9.8 WNW 3 7 1021.2 - 0.0 - Cloudy 10 - - - -
22/04:00am 9.4 W 6 7 1021.0 - 0.0 - Partly cloudy 10 - - - -
22/03:30am 10.6 NNW 5 6 1020.9 - 0.0 - - 10 - - - -
22/03:00am 10.9 NNW 6 7 1020.7 F 0.0 - - 10 - - - -
22/02:30am 11.5 NNW 5 6 1020.9 - 0.0 - Partly cloudy 10 - - - -
22/02:00am 11.7 NNW 4 5 1021.0 - 0.0 - Cloudy 10 - - - -
22/01:30am 11.4 NW 3 4 1021.2 - 0.0 - Cloudy 10 - - - -
22/01:00am 10.8 NW 4 6 1021.3 - 0.0 - Partly cloudy 10 - - - -
22/12:30am 10.4 W 4 5 1021.3 - 0.0 - Partly cloudy 10 - - - -
22/12:00am 9.9 NNW 1 3 1021.2 R 0.0 - Cloudy 10 - - - -
 
Date/Time
WST
Temp

°C
Wind Pressure Rain
since 9am
mm
Weather Cloud Vis
km
Sea
Height
m
Swell
Dir
 
Speed
knots
Gust
knots
hPa Trend Height
m
Period
s
Dir
21/11:30pm 9.9 NNW 4 5 1021.1 - 0.0 - - 10 - - - -
21/11:00pm 10.2 N 4 5 1021.0 - 0.0 - Partly cloudy 10 - - - -
21/10:30pm 10.6 N 5 6 1021.3 - 0.0 - - 10 - - - -
21/10:00pm 10.9 NNW 5 6 1021.2 - 0.0 - - 10 - - - -
21/09:30pm 11.1 NNW 5 7 1021.3 - 0.0 - - 10 - - - -
21/09:00pm 13.4 WSW 4 5 1021.3 R 0.0 - Mostly clear 10 - - - -
21/08:30pm 13.5 WNW 5 6 1021.4 - 0.0 - - 10 - - - -
21/08:00pm 13.6 SW 3 4 1021.3 - 0.0 - Mostly clear 10 - - - -
21/07:30pm 14.4 SSW 4 5 1021.3 - 0.0 - Mostly clear 10 - - - -
21/07:00pm 14.5 SSW 6 8 1021.0 - 0.0 - Mostly clear 10 - - - -
21/06:30pm 14.7 SSW 4 5 1020.9 - 0.0 - Mostly clear 10 - - - -
21/06:00pm 15.4 SW 4 6 1020.4 R 0.0 Fine Partly cloudy 30 - - - -
21/05:30pm 16.0 SSW 5 7 1020.1 - 0.0 - Mostly clear 10 - - - -
21/05:00pm 16.8 S 9 12 1019.7 - 0.0 - Mostly clear 10 - - - -
21/04:30pm 17.3 S 9 12 1019.5 - 0.0 - Mostly clear 10 - - - -
21/04:00pm 17.3 SSW 8 11 1019.2 - 0.0 - Mostly clear 10 - - - -
21/03:30pm 17.5 S 11 16 1019.1 - 0.0 - Partly cloudy 10 - - - -
21/03:00pm 18.1 SW 10 13 1018.9 R 0.0 Fine Partly cloudy 30 - - - -
21/02:30pm 17.7 S 12 17 1018.6 - 0.0 - Partly cloudy 10 - - - -
21/02:00pm 18.1 S 11 17 1018.4 - 0.0 - Cloudy 10 - - - -
21/01:30pm 18.0 S 11 16 1018.2 - 0.0 - Partly cloudy 10 - - - -
21/01:00pm 18.5 SSW 13 17 1017.9 - 0.0 - Mostly clear 10 - - - -
21/12:30pm 18.6 S 11 16 1018.1 - 0.0 - Partly cloudy 10 - - - -
21/12:00pm 18.7 S 12 19 1017.9 R 0.0 Fine Partly cloudy 30 - - - -
21/11:30am 17.8 S 13 19 1018.4 - 0.0 - Mostly clear 10 - - - -
21/11:00am 17.9 S 12 17 1018.5 - 0.0 - Mostly clear 10 - - - -
21/10:30am 18.1 S 11 16 1018.5 - 0.0 - Mostly clear 10 - - - -
21/10:00am 17.5 S 11 19 1018.1 - 0.0 - Mostly clear 10 - - - -
21/09:30am 17.4 S 12 17 1018.2 - 0.0 - Mostly clear 10 - - - -
21/09:00am 17.1 S 12 18 1017.9 R 0.0 Fine Mostly cloudy 30 - - - -
21/08:30am 17.0 S 12 17 1017.8 - 0.0 - Mostly clear 10 - - - -
21/08:00am 16.9 S 10 15 1017.4 - 0.0 - Mostly clear 10 - - - -
21/07:30am 16.6 S 10 13 1017.1 - 0.0 - Mostly clear 10 - - - -
21/07:00am 16.4 S 11 16 1016.5 - 0.0 - Mostly clear 10 - - - -
21/06:30am 16.4 S 10 15 1016.2 - 0.0 - Partly cloudy 10 - - - -
21/06:00am 16.5 S 10 14 1015.7 R 0.0 Fine Partly cloudy 25 - - - -
21/05:30am 16.2 S 9 14 1015.9 - 0.0 - Partly cloudy 10 - - - -
21/05:00am 16.1 S 10 17 1015.6 - 0.0 - Partly cloudy 10 - - - -
21/04:30am 16.0 S 10 15 1015.1 - 0.0 - Partly cloudy 10 - - - -
21/04:00am 16.1 S 10 15 1014.7 - 0.0 - Partly cloudy 10 - - - -
21/03:30am 16.2 S 10 16 1014.4 - 0.0 - Partly cloudy 10 - - - -
21/03:00am 16.3 SSW 9 14 1014.3 R 0.0 - Cloudy 10 - - - -
21/02:30am 16.6 SSW 8 12 1014.2 - 0.0 - Partly cloudy 10 - - - -
21/02:00am 16.4 SW 8 11 1014.0 - 0.0 - Partly cloudy 10 - - - -
21/01:30am 16.1 SW 7 11 1014.0 - 0.0 - Partly cloudy 10 - - - -
21/01:00am 15.1 WNW 5 7 1013.9 - 0.0 - Partly cloudy 10 - - - -
21/12:30am 15.2 W 6 8 1013.8 - 0.0 - Partly cloudy 10 - - - -
21/12:00am 14.9 WSW 4 6 1013.4 F 0.0 - Mostly clear 10 - - - -
 
Date/Time
WST
Temp

°C
Wind Pressure Rain
since 9am
mm
Weather Cloud Vis
km
Sea
Height
m
Swell
Dir
 
Speed
knots
Gust
knots
hPa Trend Height
m
Period
s
Dir
20/11:30pm 15.1 W 5 6 1013.5 - 0.0 - - 10 - - - -
20/11:00pm 15.5 W 4 5 1013.6 - 0.0 - - 10 - - - -
20/10:30pm 15.7 WSW 4 5 1014.0 - 0.0 - Partly cloudy 10 - - - -
20/10:00pm 16.2 SW 4 5 1013.9 - 0.0 - Partly cloudy 10 - - - -
20/09:30pm 16.9 SSW 4 5 1014.0 - 0.0 - Partly cloudy 10 - - - -
20/09:00pm 17.0 SSW 4 5 1013.9 F 0.0 - Cloudy 10 - - - -
20/08:30pm 16.9 S 2 3 1013.9 - 0.0 - Partly cloudy 10 - - - -

Other Formats:

Comma delimited format used in spreadsheet applications
http://www.bom.gov.au/fwo/IDW60701/IDW60701.94638.axf

JavaScript Object Notation format (JSON) in row-major order
http://www.bom.gov.au/fwo/IDW60701/IDW60701.94638.json